RJNKRJGG

Guest
Details From RJNK - KOMATSU
To RJGG - CHUBU CENTRAIR INTL
Flight Number -
Tags generated
Created
Modified
Stats Distance 95 nm / 175 km
Max Altitude 0 ft / 0 m
Waypoints 3
Social Downloads 1
Likes 0
Share VATSIM

Download

Looking for another format? Having issues loading an existing format? Contact us
Advertisement - Login to hide

Notes

Basic altitude profile: - Ascent Rate: 2500ft/min - Ascent Speed: 250kts - Cruise Altitude: 35000ft - Cruise Speed: 420kts - Descent Rate: 1500ft/min - Descent Speed: 250kts Options: - Use NATs: yes - Use PACOTS: yes - Use low airways: yes - Use high airways: yes

Route

RJNK KMC RJGG

ID Type Via Altitude Latitude Longitude Leg Dist Tot Dist Heading (true) Name
O RJNK APT - 0 ft / 0 m 36.39425˚ 136.40686˚ - 0 nm - KOMATSU
KMC VOR - 0 ft / 0 m 36.39639˚ 136.40500˚ 0 nm 0 nm 325° / 325° KOMATSU VORTAC
O RJGG APT - 0 ft / 0 m 34.85841˚ 136.80541˚ 94 nm 94 nm 168° / 168° CHUBU CENTRAIR INTL

Altitude Profile

Advertisement - Login to hide

RJNK

Details ICAO RJNK (KMQ)
Name KOMATSU
Region Japan
Timezone Asia/Tokyo (UTC+9.0)
Stats Elevation 36 ft / 11 m (AMSL)
Location 36.394250° 136.406856°
Runways 2
Magnetic Variation 8.140° W

METAR

RJNK 250300Z 26013KT 9999 FEW180 BKN250 26/04 Q1007

Decode

TAF

TAF RJNK 242305Z 2500/2606 24014KT 9999 FEW030 BECMG 2510/2512 18005KT BECMG 2600/2603 32010KT

Decode

Departure Runways

ID Width Length Bearing (true) Bearing (mag) Surface Threshold Offset Overrun Length
06 150 ft / 46 m 8,867 ft / 2,703 m 55.39° 63.53° Asphalt 0 ft / 0 m 1,135 ft / 346 m
06T 148 ft / 45 m 8,871 ft / 2,704 m 55.37° 63.51° Asphalt 0 ft / 0 m 1,140 ft / 347 m
24 150 ft / 46 m 8,867 ft / 2,703 m 235.40° 243.54° Asphalt 0 ft / 0 m 1,132 ft / 345 m
24T 148 ft / 45 m 8,871 ft / 2,704 m 235.39° 243.53° Asphalt 0 ft / 0 m 1,135 ft / 346 m

RJGG

Details ICAO RJGG (NGO)
Name CHUBU CENTRAIR INTL
Region Japan
Timezone Asia/Tokyo (UTC+9.0)
Stats Elevation 15 ft / 5 m (AMSL)
Location 34.858414° 136.805408°
Runways 1
Magnetic Variation 7.610° W

METAR

RJGG 250330Z 20005KT CAVOK 21/14 Q1008 NOSIG

Decode

TAF

TAF RJGG 242305Z 2500/2606 34006KT 9999 FEW030 BECMG 2501/2503 18010KT BECMG 2512/2515 34006KT BECMG 2600/2603 16012KT

Decode

Destination Runways

ID Width Length Bearing (true) Bearing (mag) Surface Threshold Offset Overrun Length
18 197 ft / 60 m 11,511 ft / 3,509 m 168.81° 176.42° Asphalt 0 ft / 0 m 197 ft / 60 m
36 197 ft / 60 m 11,511 ft / 3,509 m 348.81° 356.42° Asphalt 0 ft / 0 m 197 ft / 60 m

Approach Navaids

Runway Type Ident Frequency Range Bearing (true) Bearing (mag) Slope Elevation
18 Localiser ICY 109.70 MHz 25 nm / 46 km 168.79° 176.40° - 12 ft / 4 m (AMSL)
18 Glidescope ICY 109.70 MHz 25 nm / 46 km 176.00° 183.61° 3.00° 12 ft / 4 m (AMSL)
36 Localiser ICX 111.90 MHz 25 nm / 46 km 348.79° 356.40° - 12 ft / 4 m (AMSL)
36 Glidescope ICX 111.90 MHz 25 nm / 46 km 356.00° 3.61° 3.00° 12 ft / 4 m (AMSL)